sensor_id;sensor_type;location;lat;lon;timestamp;pressure;altitude;pressure_sealevel;temperature;humidity
33454;BME280;39400;49.744;7.012;2023-03-31T00:01:11;95159.00;;;8.31;100.00
33454;BME280;39400;49.744;7.012;2023-03-31T00:03:37;95158.97;;;8.34;100.00
33454;BME280;39400;49.744;7.012;2023-03-31T00:06:03;95168.34;;;8.37;100.00
33454;BME280;39400;49.744;7.012;2023-03-31T00:08:32;95153.50;;;8.38;100.00
33454;BME280;39400;49.744;7.012;2023-03-31T00:10:58;95160.13;;;8.37;100.00
33454;BME280;39400;49.744;7.012;2023-03-31T00:13:24;95153.50;;;8.38;100.00
33454;BME280;39400;49.744;7.012;2023-03-31T00:15:55;95144.13;;;8.39;100.00
33454;BME280;39400;49.744;7.012;2023-03-31T00:18:21;95147.22;;;8.41;100.00
33454;BME280;39400;49.744;7.012;2023-03-31T00:20:46;95137.06;;;8.38;100.00
33454;BME280;39400;49.744;7.012;2023-03-31T00:23:11;95140.97;;;8.33;100.00
33454;BME280;39400;49.744;7.012;2023-03-31T00:25:40;95134.72;;;8.33;100.00
33454;BME280;39400;49.744;7.012;2023-03-31T00:28:05;95123.03;;;8.29;100.00
33454;BME280;39400;49.744;7.012;2023-03-31T00:30:31;95121.06;;;8.26;100.00
33454;BME280;39400;49.744;7.012;2023-03-31T00:32:57;95108.13;;;8.30;100.00
33454;BME280;39400;49.744;7.012;2023-03-31T00:35:22;95105.03;;;8.31;100.00
33454;BME280;39400;49.744;7.012;2023-03-31T00:37:48;95108.16;;;8.26;100.00
33454;BME280;39400;49.744;7.012;2023-03-31T00:40:13;95101.13;;;8.29;100.00
33454;BME280;39400;49.744;7.012;2023-03-31T00:42:40;95090.94;;;8.26;100.00
33454;BME280;39400;49.744;7.012;2023-03-31T00:47:46;95099.53;;;8.35;100.00
33454;BME280;39400;49.744;7.012;2023-03-31T00:50:19;95078.00;;;8.33;100.00
33454;BME280;39400;49.744;7.012;2023-03-31T00:52:55;95081.50;;;8.34;100.00
33454;BME280;39400;49.744;7.012;2023-03-31T00:55:25;95072.94;;;8.32;100.00
33454;BME280;39400;49.744;7.012;2023-03-31T00:57:53;95075.22;;;8.44;100.00
33454;BME280;39400;49.744;7.012;2023-03-31T01:00:19;95059.22;;;8.39;100.00
33454;BME280;39400;49.744;7.012;2023-03-31T01:02:56;95049.41;;;8.38;100.00
33454;BME280;39400;49.744;7.012;2023-03-31T01:05:26;95039.25;;;8.42;100.00
33454;BME280;39400;49.744;7.012;2023-03-31T01:07:54;95042.72;;;8.46;100.00
33454;BME280;39400;49.744;7.012;2023-03-31T01:10:20;95033.75;;;8.42;100.00
33454;BME280;39400;49.744;7.012;2023-03-31T01:12:53;95036.13;;;8.40;100.00
33454;BME280;39400;49.744;7.012;2023-03-31T01:15:19;95014.19;;;8.37;100.00
33454;BME280;39400;49.744;7.012;2023-03-31T01:17:45;95016.56;;;8.31;100.00
33454;BME280;39400;49.744;7.012;2023-03-31T01:45:31;94975.78;;;7.88;100.00
33454;BME280;39400;49.744;7.012;2023-03-31T01:48:12;94977.78;;;7.84;100.00
33454;BME280;39400;49.744;7.012;2023-03-31T01:50:56;94962.97;;;7.74;100.00
33454;BME280;39400;49.744;7.012;2023-03-31T01:56:21;94956.69;;;7.77;100.00
33454;BME280;39400;49.744;7.012;2023-03-31T01:58:55;94962.19;;;7.74;100.00
33454;BME280;39400;49.744;7.012;2023-03-31T02:01:58;94956.72;;;7.74;100.00
33454;BME280;39400;49.744;7.012;2023-03-31T02:04:41;94940.34;;;7.67;100.00
33454;BME280;39400;49.744;7.012;2023-03-31T02:07:13;94939.16;;;7.68;100.00
33454;BME280;39400;49.744;7.012;2023-03-31T02:09:43;94927.81;;;7.69;100.00
33454;BME280;39400;49.744;7.012;2023-03-31T02:12:11;94916.13;;;7.61;100.00
33454;BME280;39400;49.744;7.012;2023-03-31T02:14:42;94901.66;;;7.65;100.00
33454;BME280;39400;49.744;7.012;2023-03-31T02:17:14;94900.09;;;7.63;100.00
33454;BME280;39400;49.744;7.012;2023-03-31T02:19:44;94889.56;;;7.58;100.00
33454;BME280;39400;49.744;7.012;2023-03-31T02:22:15;94881.78;;;7.57;100.00
33454;BME280;39400;49.744;7.012;2023-03-31T02:24:42;94867.72;;;7.51;100.00
33454;BME280;39400;49.744;7.012;2023-03-31T02:27:13;94870.06;;;7.56;100.00
33454;BME280;39400;49.744;7.012;2023-03-31T02:29:40;94858.34;;;7.56;100.00
33454;BME280;39400;49.744;7.012;2023-03-31T02:32:49;94849.72;;;7.57;100.00
33454;BME280;39400;49.744;7.012;2023-03-31T02:34:58;94834.09;;;7.54;100.00
33454;BME280;39400;49.744;7.012;2023-03-31T02:37:24;94834.09;;;7.54;100.00
33454;BME280;39400;49.744;7.012;2023-03-31T02:39:51;94829.41;;;7.55;100.00
33454;BME280;39400;49.744;7.012;2023-03-31T02:42:18;94821.59;;;7.57;100.00
33454;BME280;39400;49.744;7.012;2023-03-31T02:44:44;94822.06;;;7.48;100.00
33454;BME280;39400;49.744;7.012;2023-03-31T02:47:12;94811.47;;;7.50;100.00
33454;BME280;39400;49.744;7.012;2023-03-31T02:49:41;94804.41;;;7.56;100.00
33454;BME280;39400;49.744;7.012;2023-03-31T02:55:06;94765.72;;;7.54;100.00
33454;BME280;39400;49.744;7.012;2023-03-31T02:57:57;94769.22;;;7.62;100.00
33454;BME280;39400;49.744;7.012;2023-03-31T03:06:30;94730.13;;;7.58;100.00
33454;BME280;39400;49.744;7.012;2023-03-31T03:12:23;94714.16;;;7.56;100.00
33454;BME280;39400;49.744;7.012;2023-03-31T03:14:54;94690.66;;;7.62;100.00
33454;BME280;39400;49.744;7.012;2023-03-31T03:17:26;94685.56;;;7.61;100.00
33454;BME280;39400;49.744;7.012;2023-03-31T03:19:55;94682.84;;;7.61;100.00
33454;BME280;39400;49.744;7.012;2023-03-31T03:22:23;94690.94;;;7.72;100.00
33454;BME280;39400;49.744;7.012;2023-03-31T03:24:48;94690.66;;;7.62;100.00
33454;BME280;39400;49.744;7.012;2023-03-31T03:27:13;94697.28;;;7.61;100.00
33454;BME280;39400;49.744;7.012;2023-03-31T03:29:39;94690.66;;;7.62;100.00
33454;BME280;39400;49.744;7.012;2023-03-31T03:32:04;94691.78;;;7.65;100.00
33454;BME280;39400;49.744;7.012;2023-03-31T03:34:30;94687.09;;;7.66;100.00
33454;BME280;39400;49.744;7.012;2023-03-31T03:36:55;94674.25;;;7.62;100.00
33454;BME280;39400;49.744;7.012;2023-03-31T03:39:20;94684.03;;;7.60;100.00
33454;BME280;39400;49.744;7.012;2023-03-31T03:41:46;94692.22;;;7.60;100.00
33454;BME280;39400;49.744;7.012;2023-03-31T03:44:11;94688.72;;;7.59;100.00
33454;BME280;39400;49.744;7.012;2023-03-31T03:46:37;94691.53;;;7.52;100.00
33454;BME280;39400;49.744;7.012;2023-03-31T03:49:02;94690.03;;;7.44;100.00
33454;BME280;39400;49.744;7.012;2023-03-31T03:51:28;94686.44;;;7.51;100.00
33454;BME280;39400;49.744;7.012;2023-03-31T03:53:53;94691.94;;;7.47;100.00
33454;BME280;39400;49.744;7.012;2023-03-31T03:56:18;94686.91;;;7.46;100.00
33454;BME280;39400;49.744;7.012;2023-03-31T03:58:44;94677.94;;;7.42;100.00
33454;BME280;39400;49.744;7.012;2023-03-31T04:01:09;94652.88;;;7.47;100.00
33454;BME280;39400;49.744;7.012;2023-03-31T04:03:34;94640.38;;;7.49;100.00
33454;BME280;39400;49.744;7.012;2023-03-31T04:06:00;94625.50;;;7.50;100.00
33454;BME280;39400;49.744;7.012;2023-03-31T04:08:25;94632.44;;;7.58;100.00
33454;BME280;39400;49.744;7.012;2023-03-31T04:10:50;94625.44;;;7.57;100.00
33454;BME280;39400;49.744;7.012;2023-03-31T04:13:19;94628.53;;;7.59;100.00
33454;BME280;39400;49.744;7.012;2023-03-31T04:15:44;94632.44;;;7.58;100.00
33454;BME280;39400;49.744;7.012;2023-03-31T04:18:11;94634.81;;;7.56;100.00
33454;BME280;39400;49.744;7.012;2023-03-31T04:20:36;94635.63;;;7.53;100.00
33454;BME280;39400;49.744;7.012;2023-03-31T04:23:02;94631.72;;;7.54;100.00
33454;BME280;39400;49.744;7.012;2023-03-31T04:25:28;94632.94;;;7.50;100.00
33454;BME280;39400;49.744;7.012;2023-03-31T04:27:53;94625.50;;;7.50;100.00
33454;BME280;39400;49.744;7.012;2023-03-31T04:30:23;94626.34;;;7.44;100.00
33454;BME280;39400;49.744;7.012;2023-03-31T04:32:50;94619.38;;;7.39;100.00
33454;BME280;39400;49.744;7.012;2023-03-31T04:35:16;94611.53;;;7.41;100.00
33454;BME280;39400;49.744;7.012;2023-03-31T04:37:49;94586.88;;;7.45;100.00
33454;BME280;39400;49.744;7.012;2023-03-31T04:40:15;94570.59;;;7.34;100.00
33454;BME280;39400;49.744;7.012;2023-03-31T04:42:41;94560.00;;;7.39;100.00
33454;BME280;39400;49.744;7.012;2023-03-31T04:45:07;94548.19;;;7.46;100.00
33454;BME280;39400;49.744;7.012;2023-03-31T04:47:33;94540.00;;;7.46;100.00
33454;BME280;39400;49.744;7.012;2023-03-31T04:49:58;94544.66;;;7.49;100.00
33454;BME280;39400;49.744;7.012;2023-03-31T04:52:24;94541.97;;;7.46;100.00
33454;BME280;39400;49.744;7.012;2023-03-31T04:54:49;94536.44;;;7.49;100.00
33454;BME280;39400;49.744;7.012;2023-03-31T04:57:15;94530.94;;;7.53;100.00
33454;BME280;39400;49.744;7.012;2023-03-31T04:59:40;94520.38;;;7.51;100.00
33454;BME280;39400;49.744;7.012;2023-03-31T05:02:05;94510.63;;;7.50;100.00
33454;BME280;39400;49.744;7.012;2023-03-31T05:04:31;94498.41;;;7.58;100.00
33454;BME280;39400;49.744;7.012;2023-03-31T05:06:56;94485.53;;;7.59;100.00
33454;BME280;39400;49.744;7.012;2023-03-31T05:09:22;94464.38;;;7.63;100.00
33454;BME280;39400;49.744;7.012;2023-03-31T05:11:47;94458.03;;;7.70;100.00
33454;BME280;39400;49.744;7.012;2023-03-31T05:14:13;94455.75;;;7.65;100.00
33454;BME280;39400;49.744;7.012;2023-03-31T05:16:38;94458.44;;;7.68;100.00
33454;BME280;39400;49.744;7.012;2023-03-31T05:19:03;94445.84;;;7.74;100.00
33454;BME280;39400;49.744;7.012;2023-03-31T05:21:29;94436.16;;;7.70;100.00
33454;BME280;39400;49.744;7.012;2023-03-31T05:23:55;94433.88;;;7.65;100.00
33454;BME280;39400;49.744;7.012;2023-03-31T05:26:21;94431.84;;;7.69;100.00
33454;BME280;39400;49.744;7.012;2023-03-31T05:28:46;94454.88;;;7.71;100.00
33454;BME280;39400;49.744;7.012;2023-03-31T05:31:13;94464.38;;;7.63;100.00
33454;BME280;39400;49.744;7.012;2023-03-31T05:33:38;94469.13;;;7.59;100.00
33454;BME280;39400;49.744;7.012;2023-03-31T05:36:05;94458.69;;;7.50;100.00
33454;BME280;39400;49.744;7.012;2023-03-31T05:38:30;94482.56;;;7.46;100.00
33454;BME280;39400;49.744;7.012;2023-03-31T05:40:56;94488.09;;;7.43;100.00
33454;BME280;39400;49.744;7.012;2023-03-31T05:43:21;94469.78;;;7.36;100.00
33454;BME280;39400;49.744;7.012;2023-03-31T05:45:47;94448.75;;;7.33;100.00
33454;BME280;39400;49.744;7.012;2023-03-31T05:48:12;94427.97;;;7.39;100.00
33454;BME280;39400;49.744;7.012;2023-03-31T05:50:37;94426.28;;;7.49;100.00
33454;BME280;39400;49.744;7.012;2023-03-31T05:53:03;94430.13;;;7.51;100.00
33454;BME280;39400;49.744;7.012;2023-03-31T05:55:28;94449.75;;;7.46;100.00
33454;BME280;39400;49.744;7.012;2023-03-31T05:57:54;94465.44;;;7.42;100.00
33454;BME280;39400;49.744;7.012;2023-03-31T06:00:19;94464.72;;;7.38;100.00
33454;BME280;39400;49.744;7.012;2023-03-31T06:02:45;94463.03;;;7.44;100.00
33454;BME280;39400;49.744;7.012;2023-03-31T06:05:10;94467.69;;;7.47;100.00
33454;BME280;39400;49.744;7.012;2023-03-31T06:07:35;94463.72;;;7.55;100.00
33454;BME280;39400;49.744;7.012;2023-03-31T06:10:01;94445.72;;;7.54;100.00
33454;BME280;39400;49.744;7.012;2023-03-31T06:12:26;94441.97;;;7.72;100.00
33454;BME280;39400;49.744;7.012;2023-03-31T06:14:52;94440.00;;;7.72;100.00
33454;BME280;39400;49.744;7.012;2023-03-31T06:17:17;94449.47;;;7.68;100.00
33454;BME280;39400;49.744;7.012;2023-03-31T06:19:42;94458.16;;;7.62;100.00
33454;BME280;39400;49.744;7.012;2023-03-31T06:22:08;94457.31;;;7.66;100.00
33454;BME280;39400;49.744;7.012;2023-03-31T06:24:33;94455.84;;;7.57;100.00
33454;BME280;39400;49.744;7.012;2023-03-31T06:26:59;94454.66;;;7.58;100.00
33454;BME280;39400;49.744;7.012;2023-03-31T06:29:24;94461.38;;;7.54;100.00
33454;BME280;39400;49.744;7.012;2023-03-31T06:31:50;94446.09;;;7.56;100.00
33454;BME280;39400;49.744;7.012;2023-03-31T06:34:15;94439.44;;;7.57;100.00
33454;BME280;39400;49.744;7.012;2023-03-31T06:36:41;94454.31;;;7.56;100.00
33454;BME280;39400;49.744;7.012;2023-03-31T06:39:06;94457.91;;;7.50;100.00
33454;BME280;39400;49.744;7.012;2023-03-31T06:41:32;94450.03;;;7.55;100.00
33454;BME280;39400;49.744;7.012;2023-03-31T06:43:57;94443.41;;;7.53;100.00
33454;BME280;39400;49.744;7.012;2023-03-31T06:46:23;94454.69;;;7.55;100.00
33454;BME280;39400;49.744;7.012;2023-03-31T06:48:48;94450.38;;;7.57;100.00
33454;BME280;39400;49.744;7.012;2023-03-31T06:51:14;94452.28;;;7.60;100.00
33454;BME280;39400;49.744;7.012;2023-03-31T06:53:39;94444.09;;;7.60;100.00
33454;BME280;39400;49.744;7.012;2023-03-31T06:56:05;94449.13;;;7.66;100.00
33454;BME280;39400;49.744;7.012;2023-03-31T06:58:31;94436.25;;;7.62;100.00
33454;BME280;39400;49.744;7.012;2023-03-31T07:00:57;94432.34;;;7.63;100.00
33454;BME280;39400;49.744;7.012;2023-03-31T07:03:22;94429.13;;;7.69;100.00
33454;BME280;39400;49.744;7.012;2023-03-31T07:05:48;94430.75;;;7.66;100.00
33454;BME280;39400;49.744;7.012;2023-03-31T07:08:14;94428.41;;;7.65;100.00
33454;BME280;39400;49.744;7.012;2023-03-31T07:10:39;94412.75;;;7.65;100.00
33454;BME280;39400;49.744;7.012;2023-03-31T07:13:05;94419.44;;;7.64;100.00
33454;BME280;39400;49.744;7.012;2023-03-31T07:15:30;94417.13;;;7.62;100.00
33454;BME280;39400;49.744;7.012;2023-03-31T07:17:56;94426.47;;;7.61;100.00
33454;BME280;39400;49.744;7.012;2023-03-31T07:20:21;94409.72;;;7.59;100.00
33454;BME280;39400;49.744;7.012;2023-03-31T07:22:47;94425.31;;;7.62;100.00
33454;BME280;39400;49.744;7.012;2023-03-31T07:25:15;94422.06;;;7.71;100.00
33454;BME280;39400;49.744;7.012;2023-03-31T07:27:41;94414.16;;;7.77;100.00
33454;BME280;39400;49.744;7.012;2023-03-31T07:30:12;94408.94;;;7.86;100.00
33454;BME280;39400;49.744;7.012;2023-03-31T07:32:38;94415.03;;;7.97;100.00
33454;BME280;39400;49.744;7.012;2023-03-31T07:35:04;94407.31;;;8.16;100.00
33454;BME280;39400;49.744;7.012;2023-03-31T07:37:36;94410.44;;;8.18;100.00
33454;BME280;39400;49.744;7.012;2023-03-31T07:40:03;94401.72;;;8.23;100.00
33454;BME280;39400;49.744;7.012;2023-03-31T07:42:28;94390.59;;;8.33;100.00
33454;BME280;39400;49.744;7.012;2023-03-31T07:44:54;94392.91;;;8.39;100.00
33454;BME280;39400;49.744;7.012;2023-03-31T07:47:19;94400.88;;;8.53;100.00
33454;BME280;39400;49.744;7.012;2023-03-31T07:49:44;94397.22;;;8.60;100.00
33454;BME280;39400;49.744;7.012;2023-03-31T07:52:10;94387.81;;;8.61;100.00
33454;BME280;39400;49.744;7.012;2023-03-31T07:54:35;94378.38;;;8.62;100.00
33454;BME280;39400;49.744;7.012;2023-03-31T07:57:01;94388.63;;;8.57;100.00
33454;BME280;39400;49.744;7.012;2023-03-31T07:59:26;94379.34;;;8.51;100.00
33454;BME280;39400;49.744;7.012;2023-03-31T08:01:51;94382.09;;;8.51;100.00
33454;BME280;39400;49.744;7.012;2023-03-31T08:04:17;94378.31;;;8.45;100.00
33454;BME280;39400;49.744;7.012;2023-03-31T08:06:42;94367.50;;;8.58;100.00
33454;BME280;39400;49.744;7.012;2023-03-31T08:09:08;94371.38;;;8.61;100.00
33454;BME280;39400;49.744;7.012;2023-03-31T08:11:33;94357.06;;;8.73;100.00
33454;BME280;39400;49.744;7.012;2023-03-31T08:13:58;94355.34;;;8.79;100.00
33454;BME280;39400;49.744;7.012;2023-03-31T08:16:24;94356.06;;;8.83;100.00
33454;BME280;39400;49.744;7.012;2023-03-31T08:18:49;94361.44;;;8.90;100.00
33454;BME280;39400;49.744;7.012;2023-03-31T08:21:15;94362.59;;;8.89;100.00
33454;BME280;39400;49.744;7.012;2023-03-31T08:23:40;94357.56;;;8.88;100.00
33454;BME280;39400;49.744;7.012;2023-03-31T08:26:14;94363.81;;;8.88;100.00
33454;BME280;39400;49.744;7.012;2023-03-31T08:28:39;94349.25;;;8.91;100.00
33454;BME280;39400;49.744;7.012;2023-03-31T08:31:08;94356.78;;;8.87;100.00
33454;BME280;39400;49.744;7.012;2023-03-31T08:33:33;94361.91;;;8.85;100.00
33454;BME280;39400;49.744;7.012;2023-03-31T08:36:03;94362.28;;;8.87;100.00
33454;BME280;39400;49.744;7.012;2023-03-31T08:38:29;94354.13;;;8.84;100.00
33454;BME280;39400;49.744;7.012;2023-03-31T08:41:00;94356.19;;;8.76;100.00
33454;BME280;39400;49.744;7.012;2023-03-31T08:43:29;94366.47;;;8.72;100.00
33454;BME280;39400;49.744;7.012;2023-03-31T08:45:56;94344.41;;;8.79;100.00
33454;BME280;39400;49.744;7.012;2023-03-31T08:48:37;94332.81;;;8.71;100.00
33454;BME280;39400;49.744;7.012;2023-03-31T08:51:11;94344.69;;;8.65;100.00
33454;BME280;39400;49.744;7.012;2023-03-31T08:53:41;94343.97;;;8.61;100.00
33454;BME280;39400;49.744;7.012;2023-03-31T08:56:08;94349.16;;;8.55;100.00
33454;BME280;39400;49.744;7.012;2023-03-31T08:58:44;94358.63;;;7.80;100.00
33454;BME280;39400;49.744;7.012;2023-03-31T09:12:07;94369.66;;;6.50;100.00
33454;BME280;39400;49.744;7.012;2023-03-31T09:14:43;94382.06;;;6.58;100.00
33454;BME280;39400;49.744;7.012;2023-03-31T09:17:23;94368.78;;;6.60;100.00
33454;BME280;39400;49.744;7.012;2023-03-31T09:19:55;94379.66;;;6.64;100.00
33454;BME280;39400;49.744;7.012;2023-03-31T09:22:26;94378.72;;;6.78;100.00
33454;BME280;39400;49.744;7.012;2023-03-31T09:25:06;94366.00;;;6.98;100.00
33454;BME280;39400;49.744;7.012;2023-03-31T09:27:36;94355.16;;;7.22;100.00
33454;BME280;39400;49.744;7.012;2023-03-31T09:30:15;94358.88;;;7.35;100.00
33454;BME280;39400;49.744;7.012;2023-03-31T09:32:44;94337.97;;;7.52;100.00
33454;BME280;39400;49.744;7.012;2023-03-31T09:35:16;94339.34;;;7.63;100.00
33454;BME280;39400;49.744;7.012;2023-03-31T09:37:42;94336.00;;;7.76;100.00
33454;BME280;39400;49.744;7.012;2023-03-31T09:40:15;94323.41;;;7.82;100.00
33454;BME280;39400;49.744;7.012;2023-03-31T09:42:41;94321.75;;;7.88;100.00
33454;BME280;39400;49.744;7.012;2023-03-31T09:45:13;94329.13;;;8.15;100.00
33454;BME280;39400;49.744;7.012;2023-03-31T09:47:44;94332.56;;;8.19;100.00
33454;BME280;39400;49.744;7.012;2023-03-31T09:50:11;94330.41;;;8.30;100.00
33454;BME280;39400;49.744;7.012;2023-03-31T09:52:40;94318.38;;;8.47;100.00
33454;BME280;39400;49.744;7.012;2023-03-31T09:57:59;94309.63;;;8.76;100.00
33454;BME280;39400;49.744;7.012;2023-03-31T10:00:25;94296.63;;;8.80;100.00
33454;BME280;39400;49.744;7.012;2023-03-31T10:02:52;94297.50;;;8.93;100.00
33454;BME280;39400;49.744;7.012;2023-03-31T10:07:50;94297.03;;;8.98;100.00
33454;BME280;39400;49.744;7.012;2023-03-31T10:10:30;94287.91;;;8.85;100.00
33454;BME280;39400;49.744;7.012;2023-03-31T10:12:58;94317.22;;;8.68;100.00
33454;BME280;39400;49.744;7.012;2023-03-31T10:15:26;94298.59;;;8.60;100.00
33454;BME280;39400;49.744;7.012;2023-03-31T10:17:52;94302.19;;;8.56;100.00
33454;BME280;39400;49.744;7.012;2023-03-31T10:22:54;94298.03;;;8.88;100.00
33454;BME280;39400;49.744;7.012;2023-03-31T10:25:22;94289.03;;;9.08;100.00
33454;BME280;39400;49.744;7.012;2023-03-31T10:27:53;94290.56;;;9.09;100.00
33454;BME280;39400;49.744;7.012;2023-03-31T10:30:27;94287.13;;;9.21;100.00
33454;BME280;39400;49.744;7.012;2023-03-31T10:32:53;94276.66;;;9.36;100.00
33454;BME280;39400;49.744;7.012;2023-03-31T10:35:30;94263.72;;;9.52;100.00
33454;BME280;39400;49.744;7.012;2023-03-31T10:37:58;94270.13;;;9.79;100.00
33454;BME280;39400;49.744;7.012;2023-03-31T10:40:28;94253.22;;;9.96;100.00
33454;BME280;39400;49.744;7.012;2023-03-31T10:43:07;94257.00;;;10.03;100.00
33454;BME280;39400;49.744;7.012;2023-03-31T10:45:42;94254.75;;;9.97;100.00
33454;BME280;39400;49.744;7.012;2023-03-31T10:48:17;94262.56;;;9.99;100.00
33454;BME280;39400;49.744;7.012;2023-03-31T10:50:43;94269.31;;;10.11;100.00
33454;BME280;39400;49.744;7.012;2023-03-31T10:53:14;94269.50;;;10.04;100.00
33454;BME280;39400;49.744;7.012;2023-03-31T10:55:57;94261.25;;;10.20;100.00
33454;BME280;39400;49.744;7.012;2023-03-31T11:01:29;94259.72;;;10.19;100.00
33454;BME280;39400;49.744;7.012;2023-03-31T11:03:53;94262.66;;;10.12;100.00
33454;BME280;39400;49.744;7.012;2023-03-31T11:06:30;94249.91;;;10.34;100.00
33454;BME280;39400;49.744;7.012;2023-03-31T11:09:07;94257.28;;;10.37;100.00
33454;BME280;39400;49.744;7.012;2023-03-31T11:17:02;94248.38;;;10.17;100.00
33454;BME280;39400;49.744;7.012;2023-03-31T11:22:24;94267.81;;;10.39;100.00
33454;BME280;39400;49.744;7.012;2023-03-31T11:28:08;94270.81;;;10.44;100.00
33454;BME280;39400;49.744;7.012;2023-03-31T11:30:42;94229.47;;;10.35;100.00
33454;BME280;39400;49.744;7.012;2023-03-31T11:44:02;94257.19;;;9.79;100.00
33454;BME280;39400;49.744;7.012;2023-03-31T11:46:50;94273.81;;;9.88;100.00
33454;BME280;39400;49.744;7.012;2023-03-31T11:49:31;94258.88;;;10.06;100.00
33454;BME280;39400;49.744;7.012;2023-03-31T11:52:18;94247.50;;;10.36;100.00
33454;BME280;39400;49.744;7.012;2023-03-31T11:54:57;94259.13;;;10.69;100.00
33454;BME280;39400;49.744;7.012;2023-03-31T12:00:34;94266.88;;;9.84;100.00
33454;BME280;39400;49.744;7.012;2023-03-31T12:03:10;94269.28;;;9.82;100.00
33454;BME280;39400;49.744;7.012;2023-03-31T12:05:43;94269.72;;;9.64;100.00
33454;BME280;39400;49.744;7.012;2023-03-31T12:11:21;94250.22;;;9.42;100.00
33454;BME280;39400;49.744;7.012;2023-03-31T12:16:37;94245.00;;;9.47;100.00
33454;BME280;39400;49.744;7.012;2023-03-31T12:19:16;94269.16;;;9.20;100.00
33454;BME280;39400;49.744;7.012;2023-03-31T12:21:47;94252.84;;;9.13;100.00
33454;BME280;39400;49.744;7.012;2023-03-31T12:24:14;94239.50;;;9.15;100.00
33454;BME280;39400;49.744;7.012;2023-03-31T12:29:33;94256.31;;;9.66;100.00
33454;BME280;39400;49.744;7.012;2023-03-31T12:32:03;94249.81;;;9.76;100.00
33454;BME280;39400;49.744;7.012;2023-03-31T12:34:28;94234.25;;;10.02;100.00
33454;BME280;39400;49.744;7.012;2023-03-31T12:37:21;94240.13;;;10.33;100.00
33454;BME280;39400;49.744;7.012;2023-03-31T12:45:32;94228.09;;;10.56;100.00
33454;BME280;39400;49.744;7.012;2023-03-31T12:48:47;94251.84;;;10.50;100.00
33454;BME280;39400;49.744;7.012;2023-03-31T12:51:12;94227.25;;;10.30;100.00
33454;BME280;39400;49.744;7.012;2023-03-31T12:59:34;94207.47;;;10.06;100.00
33454;BME280;39400;49.744;7.012;2023-03-31T13:04:35;94193.38;;;10.62;100.00
33454;BME280;39400;49.744;7.012;2023-03-31T13:07:02;94177.03;;;10.84;100.00
33454;BME280;39400;49.744;7.012;2023-03-31T13:09:39;94180.44;;;11.01;100.00
33454;BME280;39400;49.744;7.012;2023-03-31T13:12:06;94151.94;;;11.08;100.00
33454;BME280;39400;49.744;7.012;2023-03-31T13:14:37;94164.84;;;10.98;100.00
33454;BME280;39400;49.744;7.012;2023-03-31T13:17:23;94153.63;;;10.92;100.00
33454;BME280;39400;49.744;7.012;2023-03-31T13:19:50;94161.22;;;10.88;100.00
33454;BME280;39400;49.744;7.012;2023-03-31T13:22:35;94138.53;;;11.10;100.00
33454;BME280;39400;49.744;7.012;2023-03-31T13:28:17;94151.50;;;11.22;100.00
33454;BME280;39400;49.744;7.012;2023-03-31T13:33:14;94167.81;;;10.78;100.00
33454;BME280;39400;49.744;7.012;2023-03-31T13:35:47;94225.09;;;10.21;100.00
33454;BME280;39400;49.744;7.012;2023-03-31T13:52:09;94203.06;;;7.35;100.00
33454;BME280;39400;49.744;7.012;2023-03-31T14:03:16;94182.75;;;9.28;100.00
33454;BME280;39400;49.744;7.012;2023-03-31T14:06:02;94175.28;;;9.77;100.00
33454;BME280;39400;49.744;7.012;2023-03-31T14:13:40;94161.16;;;10.63;100.00
33454;BME280;39400;49.744;7.012;2023-03-31T14:16:05;94166.59;;;10.92;100.00
33454;BME280;39400;49.744;7.012;2023-03-31T14:18:33;94156.47;;;10.76;100.00
33454;BME280;39400;49.744;7.012;2023-03-31T14:23:40;94156.84;;;10.36;100.00
33454;BME280;39400;49.744;7.012;2023-03-31T14:31:34;94156.81;;;9.94;100.00
33454;BME280;39400;49.744;7.012;2023-03-31T14:34:34;94153.22;;;9.81;100.00
33454;BME280;39400;49.744;7.012;2023-03-31T14:37:06;94166.41;;;9.86;100.00
33454;BME280;39400;49.744;7.012;2023-03-31T14:39:35;94153.03;;;9.88;100.00
33454;BME280;39400;49.744;7.012;2023-03-31T14:42:10;94147.25;;;9.99;100.00
33454;BME280;39400;49.744;7.012;2023-03-31T14:44:37;94142.91;;;9.85;100.00
33454;BME280;39400;49.744;7.012;2023-03-31T14:47:04;94151.34;;;9.78;100.00
33454;BME280;39400;49.744;7.012;2023-03-31T14:49:36;94158.56;;;9.72;100.00
33454;BME280;39400;49.744;7.012;2023-03-31T14:52:13;94148.97;;;9.64;100.00
33454;BME280;39400;49.744;7.012;2023-03-31T14:54:39;94167.16;;;9.58;100.00
33454;BME280;39400;49.744;7.012;2023-03-31T14:57:05;94159.03;;;9.38;100.00
33454;BME280;39400;49.744;7.012;2023-03-31T14:59:32;94178.00;;;9.32;100.00
33454;BME280;39400;49.744;7.012;2023-03-31T15:02:01;94184.47;;;9.05;100.00
33454;BME280;39400;49.744;7.012;2023-03-31T15:04:30;94178.63;;;9.03;100.00
33454;BME280;39400;49.744;7.012;2023-03-31T15:07:00;94192.25;;;8.54;100.00
33454;BME280;39400;49.744;7.012;2023-03-31T15:09:28;94204.88;;;8.08;100.00
33454;BME280;39400;49.744;7.012;2023-03-31T15:11:57;94190.38;;;7.45;100.00
33454;BME280;39400;49.744;7.012;2023-03-31T15:14:28;94205.41;;;7.33;100.00
33454;BME280;39400;49.744;7.012;2023-03-31T15:16:54;94184.00;;;7.51;100.00
33454;BME280;39400;49.744;7.012;2023-03-31T15:19:24;94178.06;;;7.80;100.00
33454;BME280;39400;49.744;7.012;2023-03-31T15:21:59;94173.22;;;8.27;100.00
33454;BME280;39400;49.744;7.012;2023-03-31T15:24:29;94177.72;;;8.57;100.00
33454;BME280;39400;49.744;7.012;2023-03-31T15:29:46;94179.38;;;8.71;100.00
33454;BME280;39400;49.744;7.012;2023-03-31T15:32:26;94175.66;;;8.62;100.00
33454;BME280;39400;49.744;7.012;2023-03-31T15:34:53;94182.78;;;8.75;100.00
33454;BME280;39400;49.744;7.012;2023-03-31T15:37:25;94162.19;;;9.03;100.00
33454;BME280;39400;49.744;7.012;2023-03-31T15:39:54;94164.59;;;9.18;100.00
33454;BME280;39400;49.744;7.012;2023-03-31T15:42:21;94166.47;;;9.53;100.00
33454;BME280;39400;49.744;7.012;2023-03-31T15:47:23;94165.00;;;9.49;100.00
33454;BME280;39400;49.744;7.012;2023-03-31T15:50:11;94171.28;;;9.49;100.00